createdAt,value
2019-06-08T00:03:54.977Z,93.80
2019-06-08T00:07:57.784Z,93.60
2019-06-08T00:12:00.830Z,93.20
2019-06-08T00:16:03.766Z,94.50
2019-06-08T00:20:09.779Z,94.40
2019-06-08T00:24:13.685Z,95.20
2019-06-08T00:28:18.724Z,95.80
2019-06-08T00:32:22.622Z,95.30
2019-06-08T00:36:28.504Z,94.40
2019-06-08T00:40:31.440Z,93.80
2019-06-08T00:44:34.354Z,92.80
2019-06-08T00:48:37.286Z,94.00
2019-06-08T00:52:40.165Z,93.60
2019-06-08T00:56:43.085Z,91.70
2019-06-08T01:00:48.864Z,91.10
2019-06-08T01:04:50.639Z,91.20
2019-06-08T01:08:53.549Z,90.60
2019-06-08T01:12:56.432Z,89.90
2019-06-08T01:16:59.358Z,88.10
2019-06-08T01:21:02.264Z,88.40
2019-06-08T01:25:05.539Z,86.70
2019-06-08T01:29:08.440Z,87.70
2019-06-08T01:33:11.347Z,87.00
2019-06-08T01:37:14.268Z,88.10
2019-06-08T01:41:21.319Z,87.00
2019-06-08T01:45:30.591Z,87.60
2019-06-08T01:49:33.871Z,85.30
2019-06-08T01:53:36.784Z,80.30
2019-06-08T01:57:39.619Z,86.00
2019-06-08T02:01:42.554Z,86.90
2019-06-08T02:05:45.495Z,86.10
2019-06-08T02:09:48.382Z,86.70
2019-06-08T02:13:51.290Z,86.80
2019-06-08T02:17:54.184Z,86.40
2019-06-08T02:21:57.072Z,88.30
2019-06-08T02:25:59.958Z,86.70
2019-06-08T02:30:02.982Z,85.30
2019-06-08T02:34:05.899Z,85.30
2019-06-08T02:38:11.897Z,86.50
2019-06-08T02:42:15.095Z,86.10
2019-06-08T02:46:18.305Z,87.80
2019-06-08T02:50:56.863Z,87.50
2019-06-08T02:55:07.165Z,86.50
2019-06-08T02:59:13.604Z,84.80
2019-06-08T03:03:16.531Z,85.50
2019-06-08T03:07:21.823Z,84.70
2019-06-08T03:11:37.054Z,85.90
2019-06-08T03:15:41.480Z,84.30
2019-06-08T03:19:45.290Z,83.60
2019-06-08T03:23:48.257Z,86.00
2019-06-08T03:27:51.067Z,83.50
2019-06-08T03:31:56.367Z,83.30
2019-06-08T03:36:00.658Z,83.10
2019-06-08T03:40:03.995Z,83.80
2019-06-08T03:44:06.859Z,84.10
2019-06-08T03:48:09.752Z,83.80
2019-06-08T03:52:12.663Z,85.90
2019-06-08T03:56:15.602Z,85.10
2019-06-08T04:00:19.125Z,83.90
2019-06-08T04:04:22.766Z,83.00
2019-06-08T04:08:25.949Z,82.60
2019-06-08T04:12:32.140Z,84.10
2019-06-08T04:16:40.053Z,83.80
2019-06-08T04:20:46.450Z,83.80
2019-06-08T04:24:50.577Z,83.30
2019-06-08T04:28:55.307Z,83.60
2019-06-08T04:32:58.674Z,83.60
2019-06-08T04:37:01.533Z,82.00
2019-06-08T04:41:07.226Z,81.20
2019-06-08T04:45:10.621Z,82.80
2019-06-08T04:49:13.530Z,82.80
2019-06-08T04:53:16.447Z,83.20
2019-06-08T04:57:19.297Z,82.80
2019-06-08T05:01:26.032Z,83.10
2019-06-08T05:05:28.937Z,82.30
2019-06-08T05:09:31.781Z,80.10
2019-06-08T05:13:34.662Z,78.20
2019-06-08T05:17:39.144Z,75.10
2019-06-08T05:21:43.513Z,75.40
2019-06-08T05:25:47.251Z,75.60
2019-06-08T05:29:50.231Z,76.40
2019-06-08T05:33:53.159Z,73.90
2019-06-08T05:37:56.055Z,75.10
2019-06-08T05:41:58.955Z,71.20
2019-06-08T05:46:05.129Z,70.30
2019-06-08T05:50:09.422Z,68.70
2019-06-08T05:54:12.334Z,68.40
2019-06-08T05:58:15.231Z,66.60
2019-06-08T06:02:18.199Z,67.80
2019-06-08T06:06:21.149Z,65.50
2019-06-08T06:10:26.833Z,66.80
2019-06-08T06:14:30.060Z,66.00
2019-06-08T06:18:33.415Z,64.30
2019-06-08T06:22:36.611Z,64.00
2019-06-08T06:26:39.791Z,63.10
2019-06-08T06:30:44.172Z,62.80
2019-06-08T06:34:50.525Z,63.10
2019-06-08T06:38:55.322Z,61.70
2019-06-08T06:42:59.382Z,61.30
2019-06-08T06:47:02.471Z,57.40
2019-06-08T06:51:05.595Z,60.30
2019-06-08T06:55:09.046Z,55.70
2019-06-08T06:59:12.927Z,58.20
2019-06-08T07:03:15.960Z,57.10
2019-06-08T07:07:19.030Z,56.20
2019-06-08T07:11:22.122Z,56.30
2019-06-08T07:15:41.118Z,55.80
2019-06-08T07:19:37.380Z,55.60
2019-06-08T07:23:40.253Z,56.60
2019-06-08T07:27:43.170Z,54.20
2019-06-08T07:31:46.932Z,55.60
2019-06-08T07:35:53.485Z,53.60
2019-06-08T07:39:56.413Z,53.10
2019-06-08T07:43:59.508Z,52.90
2019-06-08T07:48:02.754Z,52.60
2019-06-08T07:52:10.620Z,53.50
2019-06-08T07:56:11.689Z,51.90
2019-06-08T08:00:15.083Z,53.00
2019-06-08T08:04:18.089Z,53.20
2019-06-08T08:08:21.231Z,53.70
2019-06-08T08:12:28.312Z,53.00
2019-06-08T08:16:31.320Z,53.20
2019-06-08T08:20:34.427Z,52.00
2019-06-08T08:24:38.629Z,51.40
2019-06-08T08:28:41.785Z,52.80
2019-06-08T08:32:45.050Z,49.60
2019-06-08T08:36:49.323Z,46.90
2019-06-08T08:40:54.282Z,46.20
2019-06-08T08:45:01.546Z,45.90
2019-06-08T08:49:09.369Z,46.90
2019-06-08T08:53:08.357Z,45.50
2019-06-08T08:57:11.682Z,44.60
2019-06-08T09:01:14.588Z,45.00
2019-06-08T09:05:18.224Z,44.20
2019-06-08T09:09:21.776Z,44.80
2019-06-08T09:13:27.909Z,44.80
2019-06-08T09:17:30.304Z,44.00
2019-06-08T09:21:33.209Z,44.20
2019-06-08T09:25:37.371Z,41.80
2019-06-08T09:29:40.955Z,41.10
2019-06-08T09:33:55.193Z,41.00
2019-06-08T09:37:48.896Z,41.50
2019-06-08T09:41:58.192Z,42.80
2019-06-08T09:46:02.151Z,42.00
2019-06-08T09:50:09.567Z,41.30
2019-06-08T09:54:13.128Z,40.40
2019-06-08T09:58:22.181Z,41.40
2019-06-08T10:02:25.105Z,39.70
2019-06-08T10:06:28.117Z,37.60
2019-06-08T10:10:31.004Z,38.20
2019-06-08T10:14:33.957Z,37.30
2019-06-08T10:18:38.650Z,37.60
2019-06-08T10:22:44.456Z,38.40
2019-06-08T10:26:47.846Z,38.10
2019-06-08T10:30:51.100Z,37.70
2019-06-08T10:34:53.973Z,39.10
2019-06-08T10:39:04.425Z,38.60
2019-06-08T10:43:07.337Z,37.40
2019-06-08T10:47:12.110Z,37.80
2019-06-08T10:51:15.177Z,38.90
2019-06-08T10:55:18.224Z,38.30
2019-06-08T10:59:21.148Z,37.30
2019-06-08T11:03:24.090Z,39.00
2019-06-08T11:07:28.002Z,37.40
2019-06-08T11:11:30.990Z,37.50
2019-06-08T11:15:33.934Z,37.30
2019-06-08T11:19:37.671Z,39.00
2019-06-08T11:23:41.664Z,38.50
2019-06-08T11:27:47.375Z,37.20
2019-06-08T11:31:52.285Z,36.70
2019-06-08T11:35:55.237Z,38.40
2019-06-08T11:39:58.207Z,37.90
2019-06-08T11:44:02.139Z,38.10
2019-06-08T11:48:06.450Z,38.60
2019-06-08T11:52:11.086Z,38.40
2019-06-08T11:56:14.837Z,38.80
2019-06-08T12:00:31.144Z,38.80
2019-06-08T12:04:34.144Z,39.00
2019-06-08T12:08:38.087Z,38.60
2019-06-08T12:12:41.052Z,38.20
2019-06-08T12:16:43.993Z,39.10
2019-06-08T12:20:48.874Z,38.70
2019-06-08T12:24:51.856Z,39.00
2019-06-08T12:28:54.791Z,38.00
2019-06-08T12:32:58.180Z,38.50
2019-06-08T12:37:01.341Z,38.50
2019-06-08T12:41:04.264Z,38.50
2019-06-08T12:45:07.479Z,37.90
2019-06-08T12:49:11.666Z,37.60
2019-06-08T12:53:20.134Z,36.30
2019-06-08T12:57:22.045Z,37.30
2019-06-08T13:01:24.502Z,36.90
2019-06-08T13:05:27.712Z,36.70
2019-06-08T13:09:30.606Z,36.90
2019-06-08T13:13:33.517Z,35.90
2019-06-08T13:17:38.052Z,36.00
2019-06-08T13:21:41.176Z,34.90
2019-06-08T13:25:44.151Z,35.20
2019-06-08T13:29:48.863Z,33.80
2019-06-08T13:33:51.948Z,32.80
2019-06-08T13:37:57.354Z,32.80
2019-06-08T13:41:59.570Z,33.70
2019-06-08T13:46:03.573Z,34.30
2019-06-08T13:54:24.292Z,32.90
2019-06-08T13:58:33.155Z,32.20
2019-06-08T14:02:31.866Z,32.90
2019-06-08T14:06:34.628Z,33.60
2019-06-08T14:10:38.850Z,34.00
2019-06-08T14:14:44.373Z,33.80
2019-06-08T14:18:48.603Z,34.60
2019-06-08T14:22:51.369Z,34.30
2019-06-08T14:26:55.273Z,34.00
2019-06-08T14:30:59.329Z,32.80
2019-06-08T14:35:03.030Z,33.10
2019-06-08T14:52:28.105Z,34.30
2019-06-08T14:56:31.776Z,34.60
2019-06-08T15:00:38.023Z,33.60
2019-06-08T15:04:40.944Z,33.00
2019-06-08T15:08:50.057Z,31.90
2019-06-08T15:12:53.620Z,32.20
2019-06-08T15:21:02.926Z,32.10
2019-06-08T15:25:08.173Z,32.60
2019-06-08T15:29:10.356Z,32.80
2019-06-08T15:33:12.951Z,33.80
2019-06-08T15:37:15.560Z,33.10
2019-06-08T15:41:21.394Z,32.10
2019-06-08T15:45:30.901Z,33.00
2019-06-08T15:49:34.405Z,33.20
2019-06-08T16:07:22.180Z,34.30
2019-06-08T16:12:20.756Z,33.50
2019-06-08T16:17:17.867Z,33.30
2019-06-08T16:22:15.524Z,33.60
2019-06-08T16:27:13.268Z,31.60
2019-06-08T16:37:27.485Z,32.70
2019-06-08T16:41:32.014Z,32.90
2019-06-08T16:46:30.163Z,32.70
2019-06-08T16:51:27.783Z,33.00
2019-06-08T16:56:25.930Z,33.70
2019-06-08T17:01:23.644Z,33.90
2019-06-08T17:06:21.326Z,34.20
2019-06-08T17:11:19.041Z,35.10
2019-06-08T17:21:32.717Z,33.40
2019-06-08T17:31:46.590Z,34.10
2019-06-08T17:36:44.102Z,33.10
2019-06-08T17:40:47.054Z,33.10
2019-06-08T17:45:44.495Z,33.90
2019-06-08T17:50:42.878Z,33.90
2019-06-08T18:00:56.757Z,35.10
2019-06-08T18:05:54.219Z,34.30
2019-06-08T18:10:51.740Z,34.80
2019-06-08T18:21:07.974Z,34.00
2019-06-08T18:31:20.973Z,35.20
2019-06-08T18:40:57.962Z,34.40
2019-06-08T18:51:11.630Z,32.30
2019-06-08T18:56:09.094Z,31.40
2019-06-08T19:06:23.606Z,31.70
2019-06-08T19:11:21.807Z,31.60
2019-06-08T19:16:19.235Z,31.50
2019-06-08T19:21:17.784Z,37.30
2019-06-08T19:26:17.234Z,39.50
2019-06-08T19:31:14.782Z,40.00
2019-06-08T19:36:12.473Z,40.00
2019-06-08T19:40:17.331Z,41.40
2019-06-08T19:45:14.886Z,42.60
2019-06-08T19:50:12.324Z,43.10
2019-06-08T19:55:09.642Z,44.20
2019-06-08T20:00:07.573Z,45.30
2019-06-08T20:04:10.461Z,45.40
2019-06-08T20:09:08.497Z,45.40
2019-06-08T20:19:23.094Z,45.50
2019-06-08T20:24:02.240Z,45.10
2019-06-08T20:28:07.758Z,45.10
2019-06-08T20:33:04.675Z,45.10
2019-06-08T20:37:08.100Z,45.50
2019-06-08T20:41:11.180Z,46.10
2019-06-08T20:51:24.449Z,46.60
2019-06-08T20:56:21.763Z,47.60
2019-06-08T21:01:20.110Z,47.40
2019-06-08T21:06:18.247Z,46.80
2019-06-08T21:11:17.609Z,46.80
2019-06-08T21:16:18.076Z,47.10
2019-06-08T21:21:17.560Z,46.90
2019-06-08T21:31:30.937Z,46.60
2019-06-08T21:36:29.001Z,46.20
2019-06-08T21:40:31.893Z,46.00
2019-06-08T21:45:30.600Z,45.90
2019-06-08T21:50:28.045Z,45.20
2019-06-08T21:55:27.329Z,45.70
2019-06-08T22:00:38.545Z,45.70
2019-06-08T22:04:37.108Z,46.20
2019-06-08T22:09:34.548Z,46.60
2019-06-08T22:14:32.467Z,46.60
2019-06-08T22:19:30.212Z,47.10
2019-06-08T22:24:29.670Z,47.60
2019-06-08T22:29:27.970Z,47.60
2019-06-08T22:34:27.878Z,47.20
2019-06-08T22:38:30.171Z,47.80
2019-06-08T22:43:27.817Z,48.00
2019-06-08T22:48:27.618Z,48.00
2019-06-08T22:53:25.108Z,48.00
2019-06-08T22:58:22.777Z,48.50
2019-06-08T23:08:37.568Z,49.40
2019-06-08T23:13:37.529Z,49.40
2019-06-08T23:18:37.149Z,49.30
2019-06-08T23:23:34.972Z,50.10
2019-06-08T23:28:32.600Z,50.10
2019-06-08T23:33:30.637Z,50.60
2019-06-08T23:37:34.203Z,51.10
2019-06-08T23:42:33.567Z,51.90
2019-06-08T23:47:31.109Z,52.50
2019-06-08T23:52:28.821Z,52.80
2019-06-08T23:57:27.251Z,52.60
